Time;durP1;ratioP1;P1;durP2;ratioP2;P2;SDS_P1;SDS_P2;PMS_P1;PMS_P2;Temp;Humidity;BMP_temperature;BMP_pressure;BME280_temperature;BME280_humidity;BME280_pressure;Samples;Min_cycle;Max_cycle;Signal;HPM_P1;HPM_P2
2022/04/11 00:00:32;;;;;;;4.15;3.03;;;;;;;19.55;38.31;101495.88;4862141;29;20061;-74
2022/04/11 00:03:00;;;;;;;4.40;3.45;;;;;;;19.55;38.33;101490.50;4889890;29;20056;-74
2022/04/11 00:05:27;;;;;;;4.78;3.08;;;;;;;19.55;38.19;101497.69;4876342;29;20041;-74
2022/04/11 00:07:55;;;;;;;4.60;3.35;;;;;;;19.55;38.27;101498.53;4876353;29;20508;-74
2022/04/11 00:10:22;;;;;;;4.05;2.88;;;;;;;19.55;38.35;101492.31;4890613;29;20049;-74
2022/04/11 00:12:49;;;;;;;4.65;3.05;;;;;;;19.54;38.31;101494.16;4876429;29;20053;-74
2022/04/11 00:15:17;;;;;;;4.20;2.88;;;;;;;19.54;38.10;101493.31;4891059;29;20057;-74
2022/04/11 00:17:44;;;;;;;4.60;2.88;;;;;;;19.53;38.17;101495.13;4896423;29;20056;-74
2022/04/11 00:20:12;;;;;;;3.72;2.53;;;;;;;19.52;38.33;101486.19;4898048;29;20053;-74
2022/04/11 00:22:39;;;;;;;4.32;3.22;;;;;;;19.52;38.20;101480.81;4897649;29;20044;-74
2022/04/11 00:25:08;;;;;;;6.00;3.45;;;;;;;19.52;38.23;101480.81;4898099;29;20071;-74
2022/04/11 00:27:35;;;;;;;4.55;2.83;;;;;;;19.52;38.21;101482.66;4881622;29;20056;-74
2022/04/11 00:30:03;;;;;;;4.72;2.85;;;;;;;19.51;38.15;101481.81;4896131;29;20057;-74
2022/04/11 00:32:31;;;;;;;4.53;2.53;;;;;;;19.51;38.01;101481.81;4896115;29;20397;-74
2022/04/11 00:34:59;;;;;;;3.92;2.78;;;;;;;19.50;38.18;101484.63;4897848;29;20056;-74
2022/04/11 00:37:26;;;;;;;4.50;2.65;;;;;;;19.51;37.93;101478.28;4880705;29;20064;-74
2022/04/11 00:39:53;;;;;;;3.65;2.72;;;;;;;19.50;37.91;101479.25;4897555;29;20048;-74
2022/04/11 00:42:21;;;;;;;3.80;2.88;;;;;;;19.50;37.97;101479.25;4896010;29;20551;-74
2022/04/11 00:44:48;;;;;;;3.70;2.63;;;;;;;19.49;38.02;101494.50;4896621;29;20045;-74
2022/04/11 00:47:16;;;;;;;4.38;3.20;;;;;;;19.49;37.88;101485.59;4897333;28;20053;-74
2022/04/11 00:49:44;;;;;;;5.05;2.63;;;;;;;19.49;38.02;101490.97;4897950;28;20527;-74
2022/04/11 00:52:13;;;;;;;4.07;2.97;;;;;;;19.48;37.91;101490.09;4897373;29;20071;-74
2022/04/11 00:54:41;;;;;;;2.83;2.17;;;;;;;19.47;37.77;101491.06;4896988;29;20041;-74
2022/04/11 00:57:10;;;;;;;3.65;2.80;;;;;;;19.48;38.05;101484.72;4897444;29;20060;-74
2022/04/11 00:59:37;;;;;;;3.55;2.65;;;;;;;19.47;38.21;101492.91;4896939;29;20053;-74
2022/04/11 01:02:05;;;;;;;5.43;2.95;;;;;;;19.46;37.73;101485.84;4895578;29;20057;-74
2022/04/11 01:04:34;;;;;;;3.85;2.58;;;;;;;19.46;37.88;101486.69;4897455;29;20052;-74
2022/04/11 01:07:04;;;;;;;3.15;2.85;;;;;;;19.47;37.94;101484.84;4895449;29;20053;-74
2022/04/11 01:09:31;;;;;;;4.18;2.90;;;;;;;19.47;37.92;101498.28;4896906;29;20048;-74
2022/04/11 01:11:59;;;;;;;4.65;3.20;;;;;;;19.46;37.94;101493.88;4897071;28;20408;-74
2022/04/11 01:14:26;;;;;;;3.63;2.60;;;;;;;19.46;37.88;101507.31;4895527;29;20053;-74
2022/04/11 01:16:57;;;;;;;4.28;2.90;;;;;;;19.45;37.91;101503.78;4896652;29;20053;-74
2022/04/11 01:19:25;;;;;;;3.40;2.55;;;;;;;19.45;37.94;101501.09;4880019;28;20500;-75
2022/04/11 01:21:54;;;;;;;4.00;3.08;;;;;;;19.46;37.83;101518.06;4894992;29;20053;-74
2022/04/11 01:24:23;;;;;;;4.75;3.00;;;;;;;19.45;38.05;101517.19;4879558;29;20053;-74
2022/04/11 01:26:54;;;;;;;4.00;2.85;;;;;;;19.44;37.84;101520.84;4895720;29;20497;-74
2022/04/11 01:29:24;;;;;;;3.97;2.78;;;;;;;19.44;37.94;101503.88;4895252;29;20421;-74
2022/04/11 01:31:52;;;;;;;4.25;2.65;;;;;;;19.44;38.03;101509.25;4895185;29;20053;-74
2022/04/11 01:34:20;;;;;;;4.80;2.67;;;;;;;19.44;37.95;101509.25;4895300;29;20068;-74
2022/04/11 01:36:47;;;;;;;3.83;2.60;;;;;;;19.43;37.92;101512.91;4896456;29;20056;-74
2022/04/11 01:39:14;;;;;;;4.40;3.20;;;;;;;19.43;37.97;101512.91;4896444;29;20504;-74
2022/04/11 01:41:42;;;;;;;3.55;2.85;;;;;;;19.43;37.92;101520.97;4895163;29;20067;-74
2022/04/11 01:44:09;;;;;;;5.53;2.90;;;;;;;19.42;37.96;101516.56;4880098;29;20063;-74
2022/04/11 01:46:37;;;;;;;4.63;3.05;;;;;;;19.41;37.88;101513.03;4896429;29;20052;-75
2022/04/11 01:49:09;;;;;;;4.03;2.58;;;;;;;19.41;37.74;101510.34;4879518;29;20059;-74
2022/04/11 01:51:36;;;;;;;3.53;2.63;;;;;;;19.42;37.86;101516.56;4894902;29;20057;-74
2022/04/11 01:54:04;;;;;;;3.85;2.88;;;;;;;19.40;37.95;101522.03;4894741;29;20408;-74
2022/04/11 01:56:31;;;;;;;3.35;2.60;;;;;;;19.41;37.92;101522.94;4896398;29;20049;-74
2022/04/11 01:58:59;;;;;;;4.22;2.72;;;;;;;19.40;37.89;101524.72;4879554;29;20053;-75
2022/04/11 02:01:26;;;;;;;4.57;2.47;;;;;;;19.40;37.79;101531.94;4879376;29;20068;-75
2022/04/11 02:03:54;;;;;;;3.47;2.53;;;;;;;19.40;38.00;101532.78;4896621;29;20049;-75
2022/04/11 02:06:21;;;;;;;3.90;2.88;;;;;;;19.40;37.86;101534.63;4895155;29;20056;-74
2022/04/11 02:08:49;;;;;;;3.97;2.40;;;;;;;19.39;37.91;101539.13;4879148;29;20508;-74
2022/04/11 02:11:18;;;;;;;3.05;2.40;;;;;;;19.39;37.90;101538.28;4879139;29;20056;-74
2022/04/11 02:13:46;;;;;;;3.88;2.60;;;;;;;19.40;37.71;101545.34;4894497;29;20056;-74
2022/04/11 02:16:13;;;;;;;2.60;2.10;;;;;;;19.39;37.94;101535.59;4896598;29;20041;-74
2022/04/11 02:18:41;;;;;;;4.43;2.90;;;;;;;19.38;37.89;101547.31;4879202;29;20369;-74
2022/04/11 02:21:08;;;;;;;4.30;2.83;;;;;;;19.37;37.80;101549.13;4894586;29;20068;-74
2022/04/11 02:23:35;;;;;;;4.35;2.85;;;;;;;19.37;37.79;101546.47;4894501;29;20493;-74
2022/04/11 02:26:03;;;;;;;3.47;2.53;;;;;;;19.37;37.70;101549.13;4896100;29;20045;-74
2022/04/11 02:28:30;;;;;;;3.15;2.30;;;;;;;19.37;37.79;101559.88;4895546;29;20052;-75
2022/04/11 02:30:58;;;;;;;3.45;2.58;;;;;;;19.37;37.76;101562.56;4894430;29;20063;-74
2022/04/11 02:33:27;;;;;;;3.88;2.30;;;;;;;19.36;38.03;101550.09;4894364;29;20056;-75
2022/04/11 02:35:54;;;;;;;3.03;1.95;;;;;;;19.36;37.90;101560.81;4893687;29;20056;-74
2022/04/11 02:38:22;;;;;;;3.75;2.45;;;;;;;19.37;37.89;101553.66;4878808;29;20060;-74
2022/04/11 02:40:51;;;;;;;3.70;2.00;;;;;;;19.37;38.01;101556.34;4878766;29;20052;-75
2022/04/11 02:43:22;;;;;;;3.47;2.63;;;;;;;19.36;37.79;101554.59;4895854;29;20044;-75
2022/04/11 02:45:54;;;;;;;3.83;2.63;;;;;;;19.35;37.84;101548.38;4895802;28;20389;-75
2022/04/11 02:48:39;;;;;;;3.60;2.10;;;;;;;19.36;37.92;101551.94;4894311;29;20412;-74
2022/04/11 02:51:39;;;;;;;3.28;2.30;;;;;;;19.35;37.81;101552.91;4892549;29;20405;-74
2022/04/11 02:54:14;;;;;;;5.07;2.28;;;;;;;19.35;37.73;101555.59;4895864;28;20056;-74
2022/04/11 02:56:44;;;;;;;2.78;1.90;;;;;;;19.34;37.63;101553.88;4894101;29;20049;-75
2022/04/11 02:59:12;;;;;;;4.07;2.30;;;;;;;19.35;37.82;101558.28;4894081;29;20516;-75
2022/04/11 03:01:45;;;;;;;3.63;2.17;;;;;;;19.34;37.91;101567.31;4894575;29;20052;-75
2022/04/11 03:04:18;;;;;;;4.20;2.83;;;;;;;19.34;37.76;101564.63;4893971;29;20064;-75
2022/04/11 03:06:56;;;;;;;3.42;2.35;;;;;;;19.33;37.86;101566.44;4894138;29;20055;-75
2022/04/11 03:09:25;;;;;;;2.88;2.00;;;;;;;19.32;37.54;101564.72;4878766;29;20057;-75
2022/04/11 03:11:52;;;;;;;4.15;2.60;;;;;;;19.32;37.52;101561.19;4863150;29;20059;-75
2022/04/11 03:14:20;;;;;;;2.95;2.05;;;;;;;19.32;37.55;101558.50;4893978;29;20064;-75
2022/04/11 03:16:48;;;;;;;3.33;2.30;;;;;;;19.33;37.75;101558.41;4893716;29;20049;-75
2022/04/11 03:19:17;;;;;;;3.30;2.05;;;;;;;19.32;37.63;101561.19;4893568;29;20056;-75
2022/04/11 03:21:44;;;;;;;3.33;2.33;;;;;;;19.31;37.70;101556.78;4895512;28;20068;-75
2022/04/11 03:24:15;;;;;;;5.25;2.28;;;;;;;19.31;37.60;101562.16;4896200;29;20049;-75
2022/04/11 03:26:43;;;;;;;3.13;2.28;;;;;;;19.30;37.45;101560.44;4894105;29;20068;-74
2022/04/11 03:29:18;;;;;;;2.97;1.98;;;;;;;19.31;37.38;101556.78;4878654;29;20060;-74
2022/04/11 03:31:46;;;;;;;2.85;1.95;;;;;;;19.30;37.50;101557.75;4894684;29;20057;-75
2022/04/11 03:34:15;;;;;;;3.63;2.20;;;;;;;19.30;37.52;101555.09;4877846;29;20535;-75
2022/04/11 03:36:42;;;;;;;2.83;1.92;;;;;;;19.29;37.66;101551.53;4896035;28;20507;-75
2022/04/11 03:39:10;;;;;;;3.38;1.77;;;;;;;19.29;37.43;101562.28;4895161;29;20060;-75
2022/04/11 03:41:43;;;;;;;3.22;2.30;;;;;;;19.27;37.47;101559.69;4893762;29;20063;-75
2022/04/11 03:44:16;;;;;;;2.45;1.70;;;;;;;19.29;37.39;101556.06;4895155;28;20083;-74
2022/04/11 03:46:46;;;;;;;2.88;1.95;;;;;;;19.28;37.43;101557.84;4893473;29;20053;-74
2022/04/11 03:49:18;;;;;;;3.73;2.20;;;;;;;19.26;37.61;101557.97;4880012;29;20087;-75
2022/04/11 03:51:46;;;;;;;2.70;1.80;;;;;;;19.26;37.39;101557.97;4896714;29;20294;-75
2022/04/11 03:54:14;;;;;;;2.10;1.50;;;;;;;19.27;37.34;101567.75;4881096;29;20056;-74
2022/04/11 03:56:41;;;;;;;3.10;2.00;;;;;;;19.26;37.42;101571.41;4897853;28;20049;-75
2022/04/11 03:59:10;;;;;;;3.03;1.85;;;;;;;19.26;37.40;101575.91;4881950;29;20053;-75
2022/04/11 04:01:37;;;;;;;2.45;1.77;;;;;;;19.24;37.30;101570.69;4897896;29;20412;-75
2022/04/11 04:04:05;;;;;;;2.45;1.77;;;;;;;19.24;37.42;101578.72;4896216;29;20064;-75
2022/04/11 04:06:33;;;;;;;3.22;1.70;;;;;;;19.25;37.41;101576.91;4896810;29;20071;-75
2022/04/11 04:09:01;;;;;;;2.60;1.67;;;;;;;19.25;37.28;101579.59;4896464;29;20067;-75
2022/04/11 04:11:34;;;;;;;3.63;1.95;;;;;;;19.24;37.56;101572.47;4896441;29;20417;-75
2022/04/11 04:14:12;;;;;;;2.72;1.90;;;;;;;19.24;37.61;101581.41;4897622;28;20052;-75
2022/04/11 04:16:45;;;;;;;3.23;1.73;;;;;;;19.24;37.51;101577.84;4897704;29;20397;-75
2022/04/11 04:19:15;;;;;;;2.63;1.75;;;;;;;19.24;37.22;101575.16;4896272;29;20302;-75
2022/04/11 04:21:42;;;;;;;2.97;2.10;;;;;;;19.24;37.78;101581.41;4880440;29;20080;-75
2022/04/11 04:24:13;;;;;;;3.42;1.63;;;;;;;19.24;37.56;101577.84;4881986;28;20053;-75
2022/04/11 04:26:41;;;;;;;2.78;1.60;;;;;;;19.23;37.82;101576.13;4880653;29;20053;-75
2022/04/11 04:29:10;;;;;;;3.40;1.75;;;;;;;19.22;37.59;101577.97;4896643;29;20056;-75
2022/04/11 04:31:44;;;;;;;3.10;1.98;;;;;;;19.22;37.64;101575.28;4898537;28;20060;-75
2022/04/11 04:34:11;;;;;;;2.83;1.80;;;;;;;19.23;37.70;101581.50;4896109;29;20508;-75
2022/04/11 04:36:41;;;;;;;3.38;1.88;;;;;;;19.22;37.73;101580.66;4896291;29;20048;-75
2022/04/11 04:39:09;;;;;;;2.60;1.58;;;;;;;19.21;37.63;101584.31;4896000;29;20084;-75
2022/04/11 04:41:40;;;;;;;3.28;1.77;;;;;;;19.21;37.62;101578.94;4897483;28;20064;-75
2022/04/11 04:44:08;;;;;;;2.33;1.50;;;;;;;19.21;37.62;101583.47;4895956;29;20063;-75
2022/04/11 04:46:40;;;;;;;2.95;1.60;;;;;;;19.21;37.50;101586.16;4897364;28;20053;-75
2022/04/11 04:49:14;;;;;;;2.65;1.63;;;;;;;19.20;37.55;101579.94;4880345;29;20059;-75
2022/04/11 04:51:41;;;;;;;3.15;1.50;;;;;;;19.20;37.56;101576.34;4896631;29;20520;-75
2022/04/11 04:54:09;;;;;;;2.60;1.75;;;;;;;19.19;37.56;101580.88;4896019;29;20416;-75
2022/04/11 04:56:38;;;;;;;3.00;1.80;;;;;;;19.18;37.62;101579.16;4895763;29;20056;-75
2022/04/11 04:59:12;;;;;;;2.78;1.70;;;;;;;19.18;37.53;101573.81;4895457;29;20060;-75
2022/04/11 05:01:39;;;;;;;2.70;1.85;;;;;;;19.17;37.57;101580.16;4897054;29;20404;-75
2022/04/11 05:04:09;;;;;;;2.65;1.70;;;;;;;19.16;37.66;101573.06;4879681;29;20064;-74
2022/04/11 05:06:37;;;;;;;2.70;1.67;;;;;;;19.16;37.54;101575.75;4897338;28;20056;-75
2022/04/11 05:09:08;;;;;;;3.88;1.98;;;;;;;19.17;37.52;101573.94;4895127;29;20412;-75
2022/04/11 05:11:36;;;;;;;2.60;1.80;;;;;;;19.17;37.46;101579.28;4895624;29;20045;-75
2022/04/11 05:14:05;;;;;;;4.25;1.95;;;;;;;19.16;37.52;101575.75;4896742;28;20049;-75
2022/04/11 05:16:35;;;;;;;3.05;2.08;;;;;;;19.16;37.71;101577.56;4895393;29;20061;-75
2022/04/11 05:19:03;;;;;;;4.15;1.80;;;;;;;19.16;37.58;101585.59;4897015;29;20511;-75
2022/04/11 05:21:31;;;;;;;3.50;1.80;;;;;;;19.15;37.77;101581.22;4895330;29;20065;-75
2022/04/11 05:24:04;;;;;;;3.63;1.85;;;;;;;19.15;37.59;101589.28;4896273;28;20061;-75
2022/04/11 05:26:31;;;;;;;2.40;1.63;;;;;;;19.15;37.57;101595.50;4897285;29;20064;-75
2022/04/11 05:29:00;;;;;;;2.28;1.50;;;;;;;19.15;37.54;101594.63;4895606;29;20063;-74
2022/04/11 05:31:28;;;;;;;2.97;2.10;;;;;;;19.14;37.60;101596.47;4896129;29;20060;-74
2022/04/11 05:33:55;;;;;;;3.65;1.80;;;;;;;19.14;37.49;101606.34;4880224;29;20071;-74
2022/04/11 05:36:24;;;;;;;2.67;1.65;;;;;;;19.14;37.60;101617.09;4895179;29;20076;-75
2022/04/11 05:38:51;;;;;;;2.55;1.50;;;;;;;19.14;37.54;101609.88;4895170;29;20538;-74
2022/04/11 05:41:19;;;;;;;3.17;1.73;;;;;;;19.14;37.57;101609.03;4895466;29;20059;-74
2022/04/11 05:43:49;;;;;;;3.63;1.85;;;;;;;19.13;37.34;101613.56;4894777;29;20506;-74
2022/04/11 05:46:20;;;;;;;2.33;1.48;;;;;;;19.14;37.45;101622.47;4895098;29;20053;-75
2022/04/11 05:48:57;;;;;;;4.82;2.00;;;;;;;19.14;37.66;101609.03;4894743;29;20408;-75
2022/04/11 05:51:26;;;;;;;2.63;1.50;;;;;;;19.14;37.65;101617.09;4894950;29;20416;-75
2022/04/11 05:53:54;;;;;;;3.70;1.80;;;;;;;19.13;37.45;101621.59;4895754;29;20057;-75
2022/04/11 05:56:21;;;;;;;2.30;1.40;;;;;;;19.15;37.56;101625.00;4894883;29;20068;-75
2022/04/11 05:58:49;;;;;;;3.80;1.90;;;;;;;19.14;37.34;101623.31;4896625;29;20036;-75
2022/04/11 06:01:16;;;;;;;4.13;1.90;;;;;;;19.13;37.30;101618.06;4879175;29;20053;-75
2022/04/11 06:03:44;;;;;;;2.60;1.60;;;;;;;19.14;37.18;101626.00;4896781;29;20045;-75
2022/04/11 06:06:11;;;;;;;3.88;1.80;;;;;;;19.14;37.41;101623.31;4895867;29;20053;-75
2022/04/11 06:08:39;;;;;;;2.42;1.80;;;;;;;19.16;37.22;101629.44;4879176;29;20377;-75
2022/04/11 06:11:07;;;;;;;4.38;2.20;;;;;;;19.15;37.49;101629.53;4893831;29;20059;-75
2022/04/11 06:13:34;;;;;;;3.15;1.98;;;;;;;19.15;37.43;101635.75;4880358;28;20071;-75
2022/04/11 06:16:04;;;;;;;3.03;1.90;;;;;;;19.16;37.43;101634.81;4878599;29;20056;-75
2022/04/11 06:18:31;;;;;;;4.30;1.80;;;;;;;19.16;37.95;101637.50;4894724;29;20063;-76
2022/04/11 06:20:59;;;;;;;2.92;1.83;;;;;;;19.18;37.53;101634.69;4894449;29;20053;-75
2022/04/11 06:23:28;;;;;;;3.40;1.67;;;;;;;19.18;37.39;101646.28;4894662;29;20523;-75
2022/04/11 06:25:56;;;;;;;3.17;1.95;;;;;;;19.17;37.01;101647.25;4879993;29;20061;-76
2022/04/11 06:28:27;;;;;;;5.72;1.88;;;;;;;19.17;36.50;101643.72;4896211;29;20385;-75
2022/04/11 06:30:56;;;;;;;2.95;1.67;;;;;;;19.16;36.82;101650.91;4897233;28;20408;-74
2022/04/11 06:33:24;;;;;;;4.97;2.35;;;;;;;19.15;37.42;101653.69;4880957;28;20416;-75
2022/04/11 06:35:51;;;;;;;4.95;1.92;;;;;;;19.17;37.10;101662.50;4897443;29;20055;-73
2022/04/11 06:38:19;;;;;;;3.70;2.00;;;;;;;19.18;37.44;101658.84;4894185;29;20509;-75
2022/04/11 06:40:46;;;;;;;4.15;1.90;;;;;;;19.18;37.55;101665.06;4894408;29;20060;-73
2022/04/11 06:43:14;;;;;;;3.17;1.90;;;;;;;19.17;37.53;101668.72;4894552;29;20053;-73
2022/04/11 06:45:51;;;;;;;3.83;1.80;;;;;;;19.18;37.63;101662.38;4893903;29;20382;-74
2022/04/11 06:48:20;;;;;;;4.85;2.17;;;;;;;19.20;38.24;101667.63;4893633;29;20053;-74
2022/04/11 06:50:50;;;;;;;2.65;1.52;;;;;;;19.21;38.04;101664.00;4890510;29;20052;-74
2022/04/11 06:53:18;;;;;;;5.07;2.30;;;;;;;19.21;37.29;101664.84;4877972;29;20057;-75
2022/04/11 06:55:47;;;;;;;4.57;2.00;;;;;;;19.21;36.50;101670.22;4895936;29;20060;-74
2022/04/11 06:58:17;;;;;;;6.18;2.25;;;;;;;19.09;35.38;101671.09;4895221;29;20053;-75
2022/04/11 07:00:45;;;;;;;6.00;2.28;;;;;;;19.01;35.03;101668.97;4895181;29;20411;-76
2022/04/11 07:03:13;;;;;;;6.10;3.00;;;;;;;18.97;34.74;101661.25;4895159;29;20048;-77
2022/04/11 07:05:40;;;;;;;5.50;2.90;;;;;;;18.95;34.22;101663.16;4894855;29;20070;-76
2022/04/11 07:08:08;;;;;;;3.22;2.70;;;;;;;18.90;33.79;101665.31;4895231;29;20473;-76
2022/04/11 07:10:37;;;;;;;6.63;3.17;;;;;;;18.89;34.12;101674.34;4893702;28;20056;-76
2022/04/11 07:13:04;;;;;;;5.18;2.92;;;;;;;18.88;33.89;101665.44;4895063;29;20072;-76
2022/04/11 07:15:32;;;;;;;5.38;2.70;;;;;;;18.89;34.07;101658.25;4894758;29;20063;-76
2022/04/11 07:17:59;;;;;;;7.05;3.10;;;;;;;18.88;33.67;101667.25;4893408;29;20089;-76
2022/04/11 07:20:27;;;;;;;4.28;2.90;;;;;;;18.88;33.43;101664.56;4895012;29;20048;-74
2022/04/11 07:22:54;;;;;;;6.00;2.42;;;;;;;18.89;33.61;101667.16;4896694;29;20059;-76
2022/04/11 07:25:24;;;;;;;4.47;2.70;;;;;;;18.90;33.58;101673.38;4898651;29;20045;-76
2022/04/11 07:27:51;;;;;;;4.72;2.92;;;;;;;18.89;33.59;101675.19;4898497;29;20052;-76
2022/04/11 07:30:19;;;;;;;5.55;2.90;;;;;;;18.88;33.32;101680.66;4899182;29;20049;-76
2022/04/11 07:32:46;;;;;;;5.95;2.40;;;;;;;18.92;33.45;101687.53;4898720;29;20057;-76
2022/04/11 07:35:14;;;;;;;6.65;2.75;;;;;;;18.91;33.50;101686.66;4898598;29;20048;-75
2022/04/11 07:37:41;;;;;;;4.68;2.55;;;;;;;18.94;33.13;101688.28;4898257;29;20049;-76
2022/04/11 07:40:09;;;;;;;5.60;2.72;;;;;;;18.95;33.25;101688.16;4881403;29;20412;-76
2022/04/11 07:42:37;;;;;;;4.07;2.53;;;;;;;18.95;32.80;101681.94;4898312;29;20049;-78
2022/04/11 07:45:05;;;;;;;4.90;3.10;;;;;;;18.96;32.70;101681.00;4898064;29;20061;-77
2022/04/11 07:47:32;;;;;;;5.75;3.33;;;;;;;18.98;32.85;101681.75;4898024;28;20064;-76
2022/04/11 07:50:06;;;;;;;7.20;2.67;;;;;;;18.99;32.38;101683.44;4899376;28;20052;-78
2022/04/11 07:52:37;;;;;;;6.13;2.63;;;;;;;18.99;32.60;101678.94;4897302;29;20048;-79
2022/04/11 07:55:06;;;;;;;5.53;3.47;;;;;;;19.00;32.41;101677.13;4881677;29;20060;-79
2022/04/11 07:57:34;;;;;;;7.22;3.08;;;;;;;19.03;32.92;101682.25;4880592;29;20071;-77
2022/04/11 08:00:23;;;;;;;5.65;2.60;;;;;;;19.05;32.89;101687.53;4898307;29;20404;-78
2022/04/11 08:02:54;;;;;;;8.18;2.75;;;;;;;19.09;33.36;101686.34;4898111;29;20057;-78
2022/04/11 08:05:24;;;;;;;5.43;2.95;;;;;;;19.09;33.34;101679.16;4898042;29;20048;-78
2022/04/11 08:07:52;;;;;;;3.55;2.78;;;;;;;19.09;33.02;101681.84;4898133;29;20059;-78
2022/04/11 08:10:21;;;;;;;3.33;2.55;;;;;;;19.12;33.95;101691.47;4896647;29;20057;-78
2022/04/11 08:12:51;;;;;;;4.38;2.58;;;;;;;19.14;33.45;101695.78;4898761;29;20575;-79
2022/04/11 08:15:19;;;;;;;5.65;2.30;;;;;;;19.17;33.92;101683.97;4897536;29;20052;-78
2022/04/11 08:17:46;;;;;;;6.00;2.22;;;;;;;19.18;34.56;101694.59;4897536;29;20049;-78
2022/04/11 08:20:14;;;;;;;6.40;3.30;;;;;;;19.18;34.28;101689.22;4896483;29;20052;-77
2022/04/11 08:22:45;;;;;;;4.32;2.40;;;;;;;19.20;34.39;101687.31;4898296;29;20052;-77
2022/04/11 08:25:14;;;;;;;4.57;2.53;;;;;;;19.22;33.98;101684.50;4898285;29;20075;-77
2022/04/11 08:27:42;;;;;;;7.05;2.40;;;;;;;19.21;33.70;101694.38;4896442;29;20055;-79
2022/04/11 08:30:12;;;;;;;3.50;2.47;;;;;;;19.22;34.02;101685.34;4898417;29;20052;-78
2022/04/11 08:32:41;;;;;;;4.60;2.42;;;;;;;19.23;35.23;101681.69;4897675;29;20412;-78
2022/04/11 08:35:09;;;;;;;4.15;2.30;;;;;;;19.23;35.21;101684.38;4896880;29;20048;-78
2022/04/11 08:37:40;;;;;;;2.97;2.03;;;;;;;19.24;35.25;101672.69;4897540;29;20044;-77
2022/04/11 08:40:11;;;;;;;4.07;2.10;;;;;;;19.25;34.99;101676.22;4897712;29;20057;-77
2022/04/11 08:42:40;;;;;;;6.53;1.80;;;;;;;19.26;34.92;101684.16;4897453;29;20056;-76
2022/04/11 08:45:15;;;;;;;3.22;1.88;;;;;;;19.28;34.74;101678.66;4897263;29;20147;-76
2022/04/11 08:47:43;;;;;;;4.03;2.23;;;;;;;19.30;35.09;101681.25;4895932;29;20075;-77
2022/04/11 08:50:11;;;;;;;3.35;1.95;;;;;;;19.30;35.16;101676.75;4897678;29;20299;-76
2022/04/11 08:52:40;;;;;;;3.42;2.13;;;;;;;19.31;34.91;101678.44;4897531;29;20386;-76
2022/04/11 08:55:09;;;;;;;3.70;2.00;;;;;;;19.33;35.21;101678.38;4897223;29;20049;-76
2022/04/11 08:57:37;;;;;;;4.10;2.42;;;;;;;19.33;35.29;101675.69;4895541;29;20063;-76
2022/04/11 09:00:17;;;;;;;5.20;2.17;;;;;;;19.34;35.10;101682.75;4896157;29;20048;-74
2022/04/11 09:02:44;;;;;;;4.35;2.33;;;;;;;19.34;35.41;101677.38;4896895;29;20063;-76
2022/04/11 09:05:19;;;;;;;4.88;1.95;;;;;;;19.36;35.45;101676.28;4896867;29;20059;-76
2022/04/11 09:07:55;;;;;;;4.15;1.80;;;;;;;19.36;35.40;101673.59;4896825;29;20053;-77
2022/04/11 09:10:37;;;;;;;4.13;1.83;;;;;;;19.36;35.39;101670.91;4881321;29;20412;-74
2022/04/11 09:13:07;;;;;;;2.83;1.90;;;;;;;19.39;35.71;101667.16;4896736;29;20052;-77
2022/04/11 09:15:39;;;;;;;3.03;1.70;;;;;;;19.38;35.83;101674.34;4896438;29;20068;-76
2022/04/11 09:18:07;;;;;;;3.70;1.90;;;;;;;19.39;35.78;101668.00;4896688;29;20060;-76
2022/04/11 09:20:34;;;;;;;3.10;1.73;;;;;;;19.39;36.03;101672.53;4896464;29;20315;-76
2022/04/11 09:23:02;;;;;;;3.08;1.75;;;;;;;19.39;35.92;101669.84;4896653;29;20056;-76
2022/04/11 09:25:31;;;;;;;3.95;1.85;;;;;;;19.40;36.09;101675.09;4896567;28;20444;-76
2022/04/11 09:28:10;;;;;;;2.78;1.80;;;;;;;19.39;36.19;101676.06;4879888;29;20060;-76
2022/04/11 09:30:39;;;;;;;3.15;1.88;;;;;;;19.41;36.00;101670.59;4896276;29;20049;-76
2022/04/11 09:33:09;;;;;;;4.80;1.95;;;;;;;19.40;36.13;101663.50;4896616;29;20059;-76
2022/04/11 09:35:38;;;;;;;4.22;1.77;;;;;;;19.41;36.28;101665.25;4896914;29;20100;-77
2022/04/11 09:38:08;;;;;;;3.25;1.40;;;;;;;19.42;36.23;101664.25;4896454;29;20049;-77
2022/04/11 09:40:50;;;;;;;2.63;1.60;;;;;;;19.42;36.14;101661.56;4896193;29;20068;-76
2022/04/11 09:43:24;;;;;;;4.20;1.70;;;;;;;19.42;36.24;101673.16;4896356;29;20485;-76
2022/04/11 09:45:52;;;;;;;2.47;1.73;;;;;;;19.42;36.35;101672.31;4896236;29;20059;-76
2022/04/11 09:48:25;;;;;;;4.90;2.10;;;;;;;19.42;36.43;101672.31;4896296;29;20048;-76
2022/04/11 09:50:54;;;;;;;3.17;2.10;;;;;;;19.42;36.32;101662.44;4896466;29;20044;-78
2022/04/11 09:53:31;;;;;;;2.55;1.60;;;;;;;19.41;36.13;101660.72;4896395;29;20059;-78
2022/04/11 09:56:08;;;;;;;3.38;2.00;;;;;;;19.42;36.32;101659.75;4896473;29;20060;-77
2022/04/11 09:58:40;;;;;;;3.63;1.65;;;;;;;19.42;36.28;101657.06;4896243;29;20056;-77
2022/04/11 10:01:08;;;;;;;3.80;1.92;;;;;;;19.42;36.13;101656.19;4895128;29;20057;-77
2022/04/11 10:03:37;;;;;;;2.95;1.73;;;;;;;19.42;36.31;101656.19;4896066;29;20056;-77
2022/04/11 10:06:05;;;;;;;2.50;1.77;;;;;;;19.42;36.35;101657.06;4878981;29;20056;-77
2022/04/11 10:08:33;;;;;;;3.30;2.05;;;;;;;19.42;35.60;101651.69;4896019;29;20055;-78
2022/04/11 10:11:01;;;;;;;3.05;1.77;;;;;;;19.42;35.93;101650.84;4896045;29;20499;-77
2022/04/11 10:13:30;;;;;;;2.67;1.88;;;;;;;19.41;35.83;101641.91;4895766;29;20377;-77
2022/04/11 10:15:58;;;;;;;3.30;1.70;;;;;;;19.41;35.72;101649.97;4895656;29;20059;-78
2022/04/11 10:18:28;;;;;;;2.90;1.80;;;;;;;19.41;35.68;101649.97;4896039;29;20051;-78
2022/04/11 10:21:03;;;;;;;3.83;1.92;;;;;;;19.41;35.76;101636.56;4895005;29;20049;-77
2022/04/11 10:24:06;;;;;;;4.45;2.40;;;;;;;19.40;34.81;101636.66;4895960;29;20059;-77
2022/04/11 10:26:47;;;;;;;4.40;2.72;;;;;;;19.39;34.64;101640.31;4896091;29;20052;-79
2022/04/11 10:29:36;;;;;;;4.20;2.40;;;;;;;19.39;35.17;101629.56;4895884;29;20403;-78
2022/04/11 10:32:16;;;;;;;2.97;1.90;;;;;;;19.38;35.46;101625.19;4895643;29;20056;-78
2022/04/11 10:34:45;;;;;;;4.07;2.10;;;;;;;19.39;35.52;101624.19;4894892;29;20055;-78
2022/04/11 10:37:13;;;;;;;3.83;2.00;;;;;;;19.39;35.50;101626.88;4895788;29;20052;-78
2022/04/11 10:39:43;;;;;;;3.72;1.92;;;;;;;19.39;35.47;101626.88;4895532;29;20053;-78
2022/04/11 10:42:15;;;;;;;3.38;1.85;;;;;;;19.39;35.50;101619.69;4895855;29;20059;-77
2022/04/11 10:44:50;;;;;;;3.33;1.80;;;;;;;19.39;35.74;101617.00;4863389;29;20064;-78
2022/04/11 10:47:30;;;;;;;2.45;1.73;;;;;;;19.39;35.60;101618.81;4895600;29;20432;-78
2022/04/11 10:49:57;;;;;;;4.00;1.77;;;;;;;19.39;35.70;101618.81;4895480;29;20055;-78
2022/04/11 10:52:32;;;;;;;3.28;1.65;;;;;;;19.39;35.37;101616.13;4895413;29;20049;-77
2022/04/11 10:55:06;;;;;;;2.47;1.45;;;;;;;19.38;35.43;101612.59;4895811;29;20155;-78
2022/04/11 10:57:34;;;;;;;4.25;2.47;;;;;;;19.39;35.54;101610.78;4894998;29;20048;-79
2022/04/11 11:00:13;;;;;;;3.53;1.90;;;;;;;19.39;35.56;101608.09;4895150;29;20045;-80
2022/04/11 11:03:02;;;;;;;3.13;1.80;;;;;;;19.39;35.68;101602.72;4878862;29;20075;-78
2022/04/11 11:05:38;;;;;;;4.57;2.00;;;;;;;19.39;35.43;101597.34;4895562;29;20052;-79
2022/04/11 11:08:12;;;;;;;3.17;1.45;;;;;;;19.39;35.73;101600.03;4895243;29;20041;-79
2022/04/11 11:10:55;;;;;;;2.70;1.60;;;;;;;19.38;35.71;101591.13;4896912;29;20049;-79
2022/04/11 11:13:34;;;;;;;2.97;1.70;;;;;;;19.39;35.42;101590.16;4896032;29;20055;-78
2022/04/11 11:16:07;;;;;;;2.30;1.50;;;;;;;19.39;35.37;101583.91;4878139;29;20060;-79
2022/04/11 11:18:50;;;;;;;3.00;1.83;;;;;;;19.39;35.39;101584.78;4895653;29;20522;-78
2022/04/11 11:21:27;;;;;;;;;;;;;;;19.38;35.32;101580.38;4895596;29;20048;-79
2022/04/11 11:24:08;;;;;;;2.67;1.70;;;;;;;19.39;35.28;101575.88;4895499;29;19923;-79
2022/04/11 11:26:39;;;;;;;2.38;1.65;;;;;;;19.39;35.41;101581.25;4895668;29;20052;-79
2022/04/11 11:29:39;;;;;;;2.08;1.30;;;;;;;19.39;35.50;101578.56;4895458;29;20056;-79
2022/04/11 11:32:09;;;;;;;2.10;1.42;;;;;;;19.39;35.49;101576.72;4877939;29;20064;-76
2022/04/11 11:34:37;;;;;;;2.63;1.50;;;;;;;19.40;35.58;101575.75;4895356;29;20048;-77
2022/04/11 11:37:13;;;;;;;3.00;1.40;;;;;;;19.40;35.30;101575.75;4894175;29;20056;-77